createdAt,value
2022-08-11T00:02:36.216Z,1.92
2022-08-11T00:05:12.169Z,2.50
2022-08-11T00:07:46.205Z,2.35
2022-08-11T00:10:16.564Z,2.20
2022-08-11T00:12:46.072Z,2.33
2022-08-11T00:15:15.004Z,2.53
2022-08-11T00:17:43.797Z,2.38
2022-08-11T00:20:17.149Z,2.22
2022-08-11T00:22:48.552Z,2.38
2022-08-11T00:25:19.537Z,2.15
2022-08-11T00:27:49.579Z,2.50
2022-08-11T00:30:18.285Z,2.28
2022-08-11T00:32:54.781Z,2.63
2022-08-11T00:35:53.752Z,2.28
2022-08-11T00:38:17.372Z,2.17
2022-08-11T00:40:53.097Z,2.40
2022-08-11T00:43:32.153Z,2.10
2022-08-11T00:46:13.725Z,2.50
2022-08-11T00:48:50.372Z,2.55
2022-08-11T00:52:04.515Z,2.20
2022-08-11T00:54:52.295Z,2.30
2022-08-11T00:58:02.728Z,2.35
2022-08-11T01:00:35.624Z,2.30
2022-08-11T01:03:32.411Z,2.80
2022-08-11T01:06:22.839Z,2.45
2022-08-11T01:09:27.328Z,2.47
2022-08-11T01:12:15.919Z,2.60
2022-08-11T01:15:27.667Z,3.15
2022-08-11T01:18:28.451Z,2.80
2022-08-11T01:21:38.615Z,2.55
2022-08-11T01:24:48.797Z,2.83
2022-08-11T01:27:50.788Z,2.33
2022-08-11T01:30:55.237Z,2.78
2022-08-11T01:34:05.750Z,2.65
2022-08-11T01:37:07.061Z,3.05
2022-08-11T01:40:05.565Z,2.13
2022-08-11T01:43:23.160Z,2.58
2022-08-11T01:45:57.347Z,2.38
2022-08-11T01:48:38.011Z,2.33
2022-08-11T01:51:24.147Z,2.63
2022-08-11T01:54:04.166Z,2.60
2022-08-11T01:56:59.062Z,2.60
2022-08-11T01:59:33.278Z,2.40
2022-08-11T02:02:46.031Z,2.45
2022-08-11T02:06:00.348Z,2.50
2022-08-11T02:08:44.843Z,3.47
2022-08-11T02:11:35.062Z,2.58
2022-08-11T02:14:14.560Z,2.55
2022-08-11T02:16:54.405Z,3.03
2022-08-11T02:19:46.111Z,2.53
2022-08-11T02:22:39.593Z,2.53
2022-08-11T02:25:10.771Z,2.88
2022-08-11T02:27:44.489Z,2.88
2022-08-11T02:30:15.559Z,2.42
2022-08-11T02:33:09.354Z,2.83
2022-08-11T02:35:45.786Z,3.45
2022-08-11T02:38:24.647Z,3.03
2022-08-11T02:41:02.227Z,3.00
2022-08-11T02:43:48.061Z,2.97
2022-08-11T02:46:27.942Z,3.03
2022-08-11T02:49:19.515Z,3.20
2022-08-11T02:52:05.081Z,3.00
2022-08-11T02:54:40.052Z,3.33
2022-08-11T02:57:17.081Z,3.10
2022-08-11T02:59:54.548Z,2.92
2022-08-11T03:02:33.072Z,2.85
2022-08-11T03:05:13.880Z,3.40
2022-08-11T03:07:54.083Z,3.78
2022-08-11T03:10:24.757Z,2.80
2022-08-11T03:13:27.184Z,3.42
2022-08-11T03:16:31.995Z,3.40
2022-08-11T03:19:13.100Z,3.30
2022-08-11T03:22:02.579Z,3.40
2022-08-11T03:24:41.075Z,3.22
2022-08-11T03:27:13.227Z,3.28
2022-08-11T03:29:48.828Z,3.40
2022-08-11T03:32:29.964Z,3.60
2022-08-11T03:35:01.481Z,2.90
2022-08-11T03:37:52.014Z,3.08
2022-08-11T03:40:54.585Z,3.65
2022-08-11T03:43:58.012Z,3.45
2022-08-11T03:46:46.380Z,3.78
2022-08-11T03:49:28.826Z,3.38
2022-08-11T03:52:07.333Z,3.55
2022-08-11T03:54:47.555Z,3.33
2022-08-11T03:57:59.377Z,3.60
2022-08-11T04:01:00.924Z,3.30
2022-08-11T04:03:58.975Z,3.63
2022-08-11T04:06:55.934Z,3.85
2022-08-11T04:09:57.428Z,3.72
2022-08-11T04:13:16.437Z,3.65
2022-08-11T04:16:29.746Z,3.97
2022-08-11T04:19:33.150Z,3.80
2022-08-11T04:22:29.156Z,4.18
2022-08-11T04:25:30.795Z,3.53
2022-08-11T04:28:42.932Z,3.95
2022-08-11T04:31:51.931Z,3.97
2022-08-11T04:34:45.737Z,3.92
2022-08-11T04:37:36.479Z,3.78
2022-08-11T04:40:48.159Z,3.95
2022-08-11T04:44:02.407Z,4.25
2022-08-11T04:47:00.909Z,4.03
2022-08-11T04:50:17.323Z,4.30
2022-08-11T04:53:32.321Z,4.15
2022-08-11T04:56:25.459Z,3.47
2022-08-11T04:59:38.634Z,4.20
2022-08-11T05:02:48.478Z,3.95
2022-08-11T05:05:33.680Z,4.50
2022-08-11T05:08:36.349Z,4.20
2022-08-11T05:11:38.036Z,3.78
2022-08-11T05:14:50.515Z,3.80
2022-08-11T05:17:54.538Z,4.20
2022-08-11T05:20:43.356Z,4.78
2022-08-11T05:23:29.888Z,3.80
2022-08-11T05:26:47.207Z,4.30
2022-08-11T05:29:54.843Z,4.10
2022-08-11T05:32:41.624Z,4.65
2022-08-11T05:35:11.210Z,4.63
2022-08-11T05:38:15.574Z,4.20
2022-08-11T05:41:10.239Z,4.63
2022-08-11T05:44:21.174Z,4.80
2022-08-11T05:47:09.060Z,4.57
2022-08-11T05:49:56.753Z,4.10
2022-08-11T05:52:47.017Z,5.15
2022-08-11T05:55:34.583Z,5.60
2022-08-11T05:58:05.122Z,4.88
2022-08-11T06:00:43.779Z,4.78
2022-08-11T06:03:13.171Z,4.65
2022-08-11T06:05:44.336Z,4.18
2022-08-11T06:08:13.829Z,4.25
2022-08-11T06:10:43.640Z,4.90
2022-08-11T06:13:15.884Z,5.00
2022-08-11T06:15:49.912Z,4.32
2022-08-11T06:18:19.411Z,4.60
2022-08-11T06:20:49.535Z,4.45
2022-08-11T06:23:20.616Z,5.68
2022-08-11T06:25:49.658Z,4.50
2022-08-11T06:28:21.377Z,4.70
2022-08-11T06:30:52.286Z,4.90
2022-08-11T06:33:31.208Z,4.68
2022-08-11T06:36:04.919Z,4.40
2022-08-11T06:38:50.595Z,5.00
2022-08-11T06:41:32.827Z,4.32
2022-08-11T06:44:08.608Z,4.82
2022-08-11T06:46:40.741Z,4.38
2022-08-11T06:49:30.314Z,4.72
2022-08-11T06:52:01.671Z,4.57
2022-08-11T06:54:34.174Z,5.00
2022-08-11T06:57:30.510Z,4.57
2022-08-11T07:00:17.847Z,4.50
2022-08-11T07:02:53.734Z,4.57
2022-08-11T07:05:25.904Z,4.78
2022-08-11T07:08:51.277Z,4.55
2022-08-11T07:12:04.034Z,4.53
2022-08-11T07:14:50.544Z,4.32
2022-08-11T07:17:23.306Z,4.75
2022-08-11T07:20:13.872Z,3.97
2022-08-11T07:23:02.281Z,4.00
2022-08-11T07:25:49.934Z,4.53
2022-08-11T07:28:40.416Z,4.15
2022-08-11T07:31:13.946Z,4.15
2022-08-11T07:34:06.953Z,4.20
2022-08-11T07:36:40.923Z,4.00
2022-08-11T07:39:18.197Z,3.60
2022-08-11T07:41:48.180Z,4.38
2022-08-11T07:44:17.494Z,3.85
2022-08-11T07:47:05.158Z,3.50
2022-08-11T07:49:53.988Z,4.10
2022-08-11T07:52:30.732Z,3.80
2022-08-11T07:55:01.546Z,3.53
2022-08-11T07:58:14.976Z,3.70
2022-08-11T08:00:56.974Z,4.25
2022-08-11T08:03:54.045Z,4.50
2022-08-11T08:06:41.297Z,3.85
2022-08-11T08:09:30.654Z,3.50
2022-08-11T08:12:19.304Z,4.15
2022-08-11T08:15:05.360Z,3.65
2022-08-11T08:18:20.640Z,3.85
2022-08-11T08:20:46.643Z,4.28
2022-08-11T08:23:15.793Z,3.67
2022-08-11T08:25:47.170Z,3.75
2022-08-11T08:28:18.808Z,3.42
2022-08-11T08:30:51.201Z,4.22
2022-08-11T08:33:22.970Z,3.70
2022-08-11T08:36:11.433Z,3.75
2022-08-11T08:38:42.436Z,3.97
2022-08-11T08:41:16.400Z,4.00
2022-08-11T08:43:48.581Z,3.65
2022-08-11T08:46:21.491Z,4.10
2022-08-11T08:48:52.152Z,4.22
2022-08-11T08:51:58.772Z,3.80
2022-08-11T08:54:30.036Z,4.10
2022-08-11T08:57:04.911Z,4.00
2022-08-11T08:59:48.025Z,3.85
2022-08-11T09:02:34.154Z,3.25
2022-08-11T09:05:10.191Z,3.80
2022-08-11T09:07:40.755Z,3.65
2022-08-11T09:10:11.489Z,3.75
2022-08-11T09:12:43.411Z,3.90
2022-08-11T09:15:14.062Z,3.88
2022-08-11T09:17:45.946Z,3.47
2022-08-11T09:20:16.365Z,3.00
2022-08-11T09:24:07.734Z,3.78
2022-08-11T09:26:14.037Z,3.15
2022-08-11T09:28:45.661Z,3.60
2022-08-11T09:31:15.300Z,3.20
2022-08-11T09:33:45.534Z,3.90
2022-08-11T09:36:32.109Z,4.53
2022-08-11T09:39:21.511Z,3.45
2022-08-11T09:42:00.687Z,3.72
2022-08-11T09:44:52.756Z,4.07
2022-08-11T09:47:24.405Z,3.90
2022-08-11T09:49:56.229Z,3.90
2022-08-11T09:52:25.875Z,3.95
2022-08-11T09:54:55.633Z,3.95
2022-08-11T09:57:42.459Z,3.70
2022-08-11T10:00:15.342Z,3.92
2022-08-11T10:02:46.189Z,3.90
2022-08-11T10:05:36.032Z,4.28
2022-08-11T10:08:06.046Z,3.63
2022-08-11T10:10:38.900Z,3.88
2022-08-11T10:14:30.471Z,4.22
2022-08-11T10:16:15.043Z,3.83
2022-08-11T10:18:52.948Z,3.70
2022-08-11T10:21:29.298Z,3.80
2022-08-11T10:24:18.547Z,4.18
2022-08-11T10:26:54.787Z,3.85
2022-08-11T10:29:44.417Z,5.15
2022-08-11T10:32:58.967Z,4.40
2022-08-11T10:35:29.525Z,4.43
2022-08-11T10:38:08.431Z,4.20
2022-08-11T10:40:41.471Z,4.28
2022-08-11T10:43:14.312Z,4.10
2022-08-11T10:46:03.025Z,3.80
2022-08-11T10:48:38.116Z,4.22
2022-08-11T10:51:14.255Z,4.03
2022-08-11T10:54:03.137Z,4.18
2022-08-11T10:56:52.155Z,4.18
2022-08-11T10:59:20.612Z,3.90
2022-08-11T11:01:48.906Z,3.95
2022-08-11T11:04:22.544Z,4.32
2022-08-11T11:06:57.814Z,3.50
2022-08-11T11:09:32.550Z,4.03
2022-08-11T11:12:22.600Z,3.95
2022-08-11T11:15:17.808Z,3.67
2022-08-11T11:18:01.692Z,3.88
2022-08-11T11:20:39.993Z,4.22
2022-08-11T11:23:16.682Z,3.63
2022-08-11T11:26:14.623Z,4.35
2022-08-11T11:29:15.057Z,4.13
2022-08-11T11:32:03.281Z,3.75
2022-08-11T11:35:05.954Z,3.90
2022-08-11T11:37:36.478Z,4.13
2022-08-11T11:40:11.442Z,3.72
2022-08-11T11:42:41.515Z,4.07
2022-08-11T11:45:23.249Z,3.72
2022-08-11T11:47:54.649Z,4.20
2022-08-11T11:50:31.688Z,4.20
2022-08-11T11:53:09.081Z,4.25
2022-08-11T11:55:38.240Z,3.65
2022-08-11T11:58:24.732Z,3.80
2022-08-11T12:01:12.138Z,3.70
2022-08-11T12:03:41.528Z,3.88
2022-08-11T12:06:14.251Z,3.53
2022-08-11T12:08:44.960Z,3.22
2022-08-11T12:11:31.923Z,4.20
2022-08-11T12:14:02.039Z,4.18
2022-08-11T12:16:36.475Z,4.28
2022-08-11T12:19:07.788Z,4.40
2022-08-11T12:21:38.114Z,4.15
2022-08-11T12:24:29.229Z,3.35
2022-08-11T12:27:17.633Z,3.55
2022-08-11T12:29:54.392Z,3.60
2022-08-11T12:32:26.433Z,4.13
2022-08-11T12:34:56.880Z,3.88
2022-08-11T12:37:30.564Z,4.07
2022-08-11T12:40:43.279Z,3.90
2022-08-11T12:43:38.084Z,4.07
2022-08-11T12:46:09.931Z,3.88
2022-08-11T12:49:02.731Z,3.72
2022-08-11T12:52:11.189Z,4.18
2022-08-11T12:54:57.447Z,3.78
2022-08-11T12:57:50.535Z,4.20
2022-08-11T13:00:38.422Z,3.50
2022-08-11T13:03:26.878Z,4.40
2022-08-11T13:05:57.927Z,3.67
2022-08-11T13:08:29.247Z,3.45
2022-08-11T13:11:17.664Z,3.45
2022-08-11T13:13:55.353Z,3.83
2022-08-11T13:16:29.054Z,3.22
2022-08-11T13:18:58.854Z,3.75
2022-08-11T13:21:29.277Z,3.88
2022-08-11T13:24:00.408Z,3.58
2022-08-11T13:26:41.553Z,3.33
2022-08-11T13:29:21.466Z,3.42
2022-08-11T13:31:50.388Z,3.53
2022-08-11T13:34:19.908Z,3.25
2022-08-11T13:36:52.210Z,3.00
2022-08-11T13:39:24.127Z,3.10
2022-08-11T13:41:54.525Z,3.78
2022-08-11T13:44:27.539Z,3.58
2022-08-11T13:46:58.760Z,3.75
2022-08-11T13:49:27.917Z,3.20
2022-08-11T13:51:57.278Z,3.38
2022-08-11T13:54:28.574Z,3.17
2022-08-11T13:57:01.003Z,2.72
2022-08-11T13:59:31.667Z,3.00
2022-08-11T14:02:22.305Z,3.30
2022-08-11T14:04:56.474Z,2.90
2022-08-11T14:07:28.562Z,3.70
2022-08-11T14:10:00.340Z,3.05
2022-08-11T14:12:48.747Z,3.35
2022-08-11T14:15:22.721Z,3.22
2022-08-11T14:17:56.791Z,2.95
2022-08-11T14:20:45.905Z,2.78
2022-08-11T14:23:15.047Z,2.70
2022-08-11T14:26:04.767Z,3.30
2022-08-11T14:28:44.013Z,3.20
2022-08-11T14:31:16.463Z,3.33
2022-08-11T14:34:00.607Z,3.38
2022-08-11T14:36:36.244Z,3.28
2022-08-11T14:39:08.040Z,3.28
2022-08-11T14:42:09.962Z,3.03
2022-08-11T14:45:18.195Z,3.80
2022-08-11T14:47:52.363Z,3.40
2022-08-11T14:50:25.061Z,3.35
2022-08-11T14:52:56.573Z,3.20
2022-08-11T14:55:44.035Z,2.95
2022-08-11T14:58:14.219Z,3.38
2022-08-11T15:00:43.872Z,3.15
2022-08-11T15:03:15.369Z,3.30
2022-08-11T15:05:56.030Z,3.45
2022-08-11T15:08:47.820Z,3.17
2022-08-11T15:11:35.803Z,2.92
2022-08-11T15:14:06.017Z,3.00
2022-08-11T15:16:53.000Z,3.10
2022-08-11T15:19:22.976Z,3.50
2022-08-11T15:22:09.087Z,3.03
2022-08-11T15:24:38.400Z,3.28
2022-08-11T15:27:28.431Z,3.20
2022-08-11T15:30:32.210Z,3.22
2022-08-11T15:33:23.167Z,3.47
2022-08-11T15:36:10.930Z,3.05
2022-08-11T15:38:46.088Z,3.22
2022-08-11T15:41:35.818Z,3.47
2022-08-11T15:44:51.277Z,3.78
2022-08-11T15:47:18.926Z,3.08
2022-08-11T15:50:10.813Z,3.47
2022-08-11T15:52:50.556Z,3.38
2022-08-11T15:55:23.550Z,3.38
2022-08-11T15:58:16.512Z,3.35
2022-08-11T16:01:08.829Z,3.25
2022-08-11T16:04:08.082Z,3.30
2022-08-11T16:06:47.775Z,3.75
2022-08-11T16:09:23.382Z,3.50
2022-08-11T16:11:56.016Z,2.92
2022-08-11T16:14:48.186Z,3.58
2022-08-11T16:17:19.799Z,3.42
2022-08-11T16:19:53.094Z,3.13
2022-08-11T16:22:33.318Z,3.47
2022-08-11T16:27:04.998Z,3.30
2022-08-11T16:27:58.372Z,3.85
2022-08-11T16:30:28.440Z,3.08
2022-08-11T16:33:48.983Z,2.95
2022-08-11T16:36:11.167Z,3.70
2022-08-11T16:38:43.853Z,3.50
2022-08-11T16:41:38.114Z,3.33
2022-08-11T16:44:36.902Z,3.25
2022-08-11T16:47:07.830Z,3.53
2022-08-11T16:49:39.552Z,3.13
2022-08-11T16:52:12.262Z,3.55
2022-08-11T16:54:44.429Z,3.35
2022-08-11T16:57:35.632Z,3.13
2022-08-11T17:00:07.908Z,3.00
2022-08-11T17:02:58.508Z,3.00
2022-08-11T17:05:54.322Z,3.22
2022-08-11T17:08:57.572Z,3.10
2022-08-11T17:11:46.056Z,3.00
2022-08-11T17:14:35.746Z,3.17
2022-08-11T17:17:06.951Z,3.25
2022-08-11T17:20:39.956Z,3.10
2022-08-11T17:22:47.184Z,2.85
2022-08-11T17:25:16.836Z,3.13
2022-08-11T17:27:46.659Z,2.60
2022-08-11T17:30:16.835Z,2.88
2022-08-11T17:33:12.384Z,2.92
2022-08-11T17:35:44.555Z,3.08
2022-08-11T17:38:15.937Z,2.90
2022-08-11T17:41:01.791Z,3.38
2022-08-11T17:43:48.886Z,3.03
2022-08-11T17:46:37.837Z,3.10
2022-08-11T17:49:11.229Z,2.85
2022-08-11T17:51:59.695Z,2.83
2022-08-11T17:54:46.207Z,3.08
2022-08-11T17:57:33.616Z,2.95
2022-08-11T18:00:02.998Z,2.85
2022-08-11T18:02:53.481Z,2.55
2022-08-11T18:05:24.945Z,2.70
2022-08-11T18:08:13.487Z,2.75
2022-08-11T18:11:00.362Z,2.90
2022-08-11T18:13:49.879Z,3.17
2022-08-11T18:16:37.066Z,3.10
2022-08-11T18:19:25.451Z,2.70
2022-08-11T18:22:16.170Z,3.45
2022-08-11T18:25:06.482Z,3.08
2022-08-11T18:28:11.073Z,2.92
2022-08-11T18:31:03.436Z,2.72
2022-08-11T18:34:07.109Z,2.78
2022-08-11T18:36:57.305Z,3.15
2022-08-11T18:39:46.245Z,3.00
2022-08-11T18:42:43.577Z,3.20
2022-08-11T18:45:45.163Z,2.92
2022-08-11T18:48:39.614Z,3.38
2022-08-11T18:51:30.468Z,3.10
2022-08-11T18:54:22.796Z,2.90
2022-08-11T18:57:09.125Z,3.45
2022-08-11T18:59:57.300Z,3.50
2022-08-11T19:02:48.405Z,3.28
2022-08-11T19:06:32.060Z,3.72
2022-08-11T19:08:47.740Z,3.08
2022-08-11T19:11:34.444Z,3.70
2022-08-11T19:14:28.841Z,3.45
2022-08-11T19:17:43.285Z,3.40
2022-08-11T19:20:26.236Z,3.40
2022-08-11T19:23:15.016Z,3.25
2022-08-11T19:26:02.813Z,3.38
2022-08-11T19:28:48.788Z,3.30
2022-08-11T19:31:35.120Z,3.15
2022-08-11T19:34:21.441Z,3.50
2022-08-11T19:37:08.814Z,3.40
2022-08-11T19:39:55.377Z,3.72
2022-08-11T19:42:41.841Z,3.28
2022-08-11T19:45:28.089Z,3.65
2022-08-11T19:48:31.282Z,3.80
2022-08-11T19:51:19.058Z,3.30
2022-08-11T19:54:07.825Z,3.30
2022-08-11T19:56:55.094Z,3.00
2022-08-11T19:59:41.568Z,3.50
2022-08-11T20:02:28.816Z,3.17
2022-08-11T20:05:14.531Z,3.22
2022-08-11T20:08:01.207Z,3.33
2022-08-11T20:10:49.862Z,2.92
2022-08-11T20:13:36.966Z,3.47
2022-08-11T20:16:28.235Z,3.50
2022-08-11T20:19:15.690Z,3.03
2022-08-11T20:22:05.914Z,3.35
2022-08-11T20:24:55.095Z,3.40
2022-08-11T20:27:44.071Z,3.95
2022-08-11T20:30:30.715Z,3.70
2022-08-11T20:33:17.132Z,3.40
2022-08-11T20:36:03.912Z,3.50
2022-08-11T20:38:51.608Z,4.18
2022-08-11T20:41:58.168Z,3.33
2022-08-11T20:44:48.219Z,3.78
2022-08-11T20:47:59.077Z,3.30
2022-08-11T20:50:45.604Z,3.65
2022-08-11T20:53:36.701Z,3.67
2022-08-11T20:56:28.698Z,3.50
2022-08-11T20:59:18.779Z,3.20
2022-08-11T21:02:10.534Z,3.13
2022-08-11T21:05:00.192Z,3.83
2022-08-11T21:07:57.255Z,3.85
2022-08-11T21:10:50.621Z,3.47
2022-08-11T21:13:39.358Z,3.17
2022-08-11T21:16:27.527Z,3.72
2022-08-11T21:19:59.604Z,3.63
2022-08-11T21:22:31.902Z,3.25
2022-08-11T21:25:18.766Z,3.53
2022-08-11T21:28:07.444Z,3.38
2022-08-11T21:30:57.970Z,3.17
2022-08-11T21:33:45.663Z,3.83
2022-08-11T21:36:34.904Z,3.58
2022-08-11T21:39:24.994Z,3.15
2022-08-11T21:42:12.170Z,3.45
2022-08-11T21:45:00.454Z,3.58
2022-08-11T21:47:47.259Z,3.17
2022-08-11T21:50:32.866Z,3.60
2022-08-11T21:53:20.520Z,3.40
2022-08-11T21:56:08.464Z,3.72
2022-08-11T21:58:55.280Z,3.53
2022-08-11T22:01:41.968Z,3.33
2022-08-11T22:04:29.385Z,3.58
2022-08-11T22:07:16.006Z,3.65
2022-08-11T22:10:27.366Z,3.40
2022-08-11T22:13:08.986Z,3.65
2022-08-11T22:15:55.805Z,3.92
2022-08-11T22:18:43.673Z,3.58
2022-08-11T22:22:01.471Z,3.65
2022-08-11T22:24:36.311Z,3.55
2022-08-11T22:27:24.681Z,3.83
2022-08-11T22:30:10.130Z,3.30
2022-08-11T22:32:56.838Z,3.47
2022-08-11T22:35:42.689Z,3.38
2022-08-11T22:38:28.629Z,3.90
2022-08-11T22:41:14.241Z,3.60
2022-08-11T22:44:01.543Z,3.90
2022-08-11T22:46:49.033Z,3.72
2022-08-11T22:49:42.445Z,4.10
2022-08-11T22:52:42.047Z,3.42
2022-08-11T22:55:28.790Z,3.95
2022-08-11T22:58:14.754Z,3.53
2022-08-11T23:01:02.611Z,3.53
2022-08-11T23:03:49.757Z,4.15
2022-08-11T23:06:36.963Z,4.13
2022-08-11T23:09:23.703Z,3.85
2022-08-11T23:12:10.938Z,3.92
2022-08-11T23:14:58.832Z,4.07
2022-08-11T23:17:46.420Z,3.40
2022-08-11T23:20:37.746Z,3.25
2022-08-11T23:23:26.086Z,3.67
2022-08-11T23:26:14.005Z,3.78
2022-08-11T23:29:05.252Z,3.58
2022-08-11T23:31:53.428Z,4.00
2022-08-11T23:35:04.252Z,3.88
2022-08-11T23:37:49.231Z,3.60
2022-08-11T23:40:34.695Z,3.53
2022-08-11T23:43:20.696Z,3.35
2022-08-11T23:46:06.229Z,3.88
2022-08-11T23:48:52.153Z,3.90
2022-08-11T23:51:40.740Z,3.60
2022-08-11T23:54:28.361Z,4.00
2022-08-11T23:57:14.342Z,3.22
